Terminal Aerodrome Forecast
Issued by NWS Paducah, KY

Home | Current Version | Previous Version | Text Only | Print | Product List | Glossary On
Versions: 1 2 3 4 5 6 7 8 9 10 11 12
000
FTUS43 KPAH 110520
TAFPAH
TAF
KPAH 110520Z 1106/1206 VRB04KT P6SM SCT250
     FM111400 21007KT P6SM SCT100
     FM111800 23013G21KT P6SM BKN250
     FM112300 28012G20KT P6SM SCT025
     FM120300 30010KT P6SM BKN025=

USA.gov is the U.S. government's official web portal to all federal, state and local government web resources and services.